Time;durP1;ratioP1;P1;durP2;ratioP2;P2;SDS_P1;SDS_P2;PMS_P1;PMS_P2;Temp;Humidity;BMP_temperature;BMP_pressure;BME280_temperature;BME280_humidity;BME280_pressure;Samples;Min_cycle;Max_cycle;Signal;HPM_P1;HPM_P2
2022/12/19 00:01:26;;;;;;;;;;;21.70;88.50;;;;;;5051068;28;19916;-69
2022/12/19 00:03:54;;;;;;;;;;;21.70;88.40;;;;;;5051163;28;20035;-70
2022/12/19 00:06:21;;;;;;;;;;;21.70;87.90;;;;;;5041297;28;19905;-69
2022/12/19 00:08:49;;;;;;;;;;;21.50;86.00;;;;;;5044734;28;19908;-70
2022/12/19 00:11:16;;;;;;;;;;;21.40;85.40;;;;;;5041815;28;19912;-69
2022/12/19 00:13:43;;;;;;;;;;;21.30;86.10;;;;;;5043817;28;19931;-69
2022/12/19 00:16:14;;;;;;;;;;;21.10;87.20;;;;;;5042610;28;19921;-70
2022/12/19 00:18:42;;;;;;;;;;;21.00;88.00;;;;;;5050305;28;20061;-69
2022/12/19 00:21:09;;;;;;;;;;;21.00;88.10;;;;;;5041768;28;19966;-70
2022/12/19 00:23:36;;;;;;;;;;;21.00;88.70;;;;;;5037100;28;19913;-71
2022/12/19 00:26:10;;;;;;;;;;;21.10;87.30;;;;;;5041685;28;20491;-69
2022/12/19 00:28:37;;;;;;;;;;;21.10;88.00;;;;;;5048415;28;19908;-70
2022/12/19 00:31:04;;;;;;;;;;;21.10;88.70;;;;;;5053161;28;20330;-69
2022/12/19 00:33:31;;;;;;;;;;;21.30;88.60;;;;;;5048411;28;19928;-70
2022/12/19 00:36:01;;;;;;;;;;;21.30;89.00;;;;;;5041343;28;19966;-67
2022/12/19 00:38:28;;;;;;;;;;;21.10;89.60;;;;;;5036611;28;19999;-69
2022/12/19 00:40:55;;;;;;;;;;;21.00;90.10;;;;;;5056318;28;19959;-70
2022/12/19 00:43:21;;;;;;;;;;;21.00;90.00;;;;;;5054140;28;20022;-71
2022/12/19 00:45:48;;;;;;;;;;;21.00;90.40;;;;;;5049892;28;20285;-69
2022/12/19 00:48:14;;;;;;;;;;;21.00;90.70;;;;;;5054542;28;19962;-69
2022/12/19 00:50:41;;;;;;;;;;;20.80;91.00;;;;;;5052942;28;19919;-70
2022/12/19 00:53:08;;;;;;;;;;;20.70;91.60;;;;;;5056634;28;20356;-70
2022/12/19 00:55:37;;;;;;;;;;;20.50;91.50;;;;;;5052756;28;19954;-70
2022/12/19 00:58:03;;;;;;;;;;;20.30;91.80;;;;;;5054612;28;19912;-69
2022/12/19 01:00:30;;;;;;;;;;;20.30;92.10;;;;;;5041791;28;19920;-69
2022/12/19 01:02:57;;;;;;;;;;;20.50;92.40;;;;;;5056211;28;19924;-70
2022/12/19 01:05:24;;;;;;;;;;;20.70;92.00;;;;;;5047393;28;20019;-71
2022/12/19 01:07:50;;;;;;;;;;;20.90;91.50;;;;;;5067256;28;19908;-70
2022/12/19 01:10:17;;;;;;;;;;;20.90;91.50;;;;;;5053710;28;20397;-69
2022/12/19 01:12:46;;;;;;;;;;;20.80;91.60;;;;;;5050788;28;20638;-70
2022/12/19 01:15:19;;;;;;;;;;;20.70;91.20;;;;;;5045375;28;20621;-70
2022/12/19 01:17:46;;;;;;;;;;;20.40;91.10;;;;;;5051705;28;20312;-69
2022/12/19 01:20:14;;;;;;;;;;;20.50;91.60;;;;;;5041247;28;19969;-69
2022/12/19 01:22:41;;;;;;;;;;;20.60;90.90;;;;;;5054299;28;20029;-71
2022/12/19 01:25:07;;;;;;;;;;;20.60;90.70;;;;;;5044570;28;20142;-70
2022/12/19 01:27:34;;;;;;;;;;;20.70;90.70;;;;;;5050248;28;19912;-71
2022/12/19 01:30:01;;;;;;;;;;;21.00;91.10;;;;;;5052113;28;19943;-71
2022/12/19 01:32:27;;;;;;;;;;;21.30;89.90;;;;;;5049387;28;19928;-71
2022/12/19 01:34:54;;;;;;;;;;;21.40;88.00;;;;;;5051363;28;19912;-69
2022/12/19 01:37:21;;;;;;;;;;;21.50;87.50;;;;;;5042690;28;19919;-71
2022/12/19 01:39:47;;;;;;;;;;;21.90;87.50;;;;;;5055864;28;19940;-70
2022/12/19 01:42:15;;;;;;;;;;;22.40;85.00;;;;;;5054882;28;20007;-71
2022/12/19 01:45:14;;;;;;;;;;;22.50;82.50;;;;;;5039342;28;19913;-71
2022/12/19 01:47:52;;;;;;;;;;;22.70;82.50;;;;;;5046469;28;19976;-68
2022/12/19 01:50:23;;;;;;;;;;;23.30;81.30;;;;;;5048637;28;19916;-70
2022/12/19 01:52:50;;;;;;;;;;;23.50;79.60;;;;;;5055507;28;20447;-69
2022/12/19 01:55:16;;;;;;;;;;;23.60;79.00;;;;;;5049563;28;19931;-70
2022/12/19 01:57:43;;;;;;;;;;;23.60;77.70;;;;;;5049946;28;20194;-69
2022/12/19 02:00:11;;;;;;;;;;;23.40;77.40;;;;;;5041039;28;19913;-70
2022/12/19 02:02:41;;;;;;;;;;;23.00;78.50;;;;;;5053483;28;19912;-70
2022/12/19 02:05:08;;;;;;;;;;;22.70;79.20;;;;;;5055125;28;19908;-70
2022/12/19 02:07:35;;;;;;;;;;;22.40;80.70;;;;;;5039341;28;19921;-69
2022/12/19 02:10:02;;;;;;;;;;;22.20;81.60;;;;;;5045004;28;20384;-68
2022/12/19 02:12:31;;;;;;;;;;;22.10;82.00;;;;;;5033010;28;19966;-68
2022/12/19 02:14:58;;;;;;;;;;;21.90;82.60;;;;;;5048116;28;19916;-70
2022/12/19 02:17:33;;;;;;;;;;;21.70;83.10;;;;;;5035475;28;19909;-69
2022/12/19 02:20:09;;;;;;;;;;;21.60;84.30;;;;;;5053509;28;20919;-69
2022/12/19 02:22:56;;;;;;;;;;;21.50;84.40;;;;;;5056205;28;19981;-69
2022/12/19 02:25:41;;;;;;;;;;;21.40;84.40;;;;;;5048050;28;19920;-69
2022/12/19 02:28:26;;;;;;;;;;;21.50;84.40;;;;;;5054680;28;19920;-68
2022/12/19 02:31:11;;;;;;;;;;;21.90;83.80;;;;;;5053655;28;19935;-68
2022/12/19 02:34:00;;;;;;;;;;;22.20;83.20;;;;;;5035723;28;19932;-69
2022/12/19 02:36:48;;;;;;;;;;;22.60;81.80;;;;;;5034583;28;19913;-70
2022/12/19 02:39:22;;;;;;;;;;;23.20;81.10;;;;;;5035842;28;19984;-70
2022/12/19 02:41:58;;;;;;;;;;;23.60;77.30;;;;;;5033667;28;20022;-70
2022/12/19 02:44:53;;;;;;;;;;;23.40;74.80;;;;;;5034475;28;20015;-70
2022/12/19 02:47:21;;;;;;;;;;;23.50;74.90;;;;;;5038391;28;20387;-69
2022/12/19 02:49:47;;;;;;;;;;;23.90;73.10;;;;;;5023945;28;19958;-70
2022/12/19 02:52:20;;;;;;;;;;;24.20;72.90;;;;;;5032145;28;20368;-70
2022/12/19 02:54:48;;;;;;;;;;;24.40;73.10;;;;;;5033556;28;19995;-68
2022/12/19 02:57:19;;;;;;;;;;;24.70;73.60;;;;;;5035879;28;19908;-68
2022/12/19 02:59:51;;;;;;;;;;;25.10;73.50;;;;;;5033808;28;19932;-70
2022/12/19 03:02:31;;;;;;;;;;;25.50;75.60;;;;;;5034516;28;19908;-69
2022/12/19 03:05:16;;;;;;;;;;;25.80;73.20;;;;;;5029113;28;19964;-70
2022/12/19 03:07:55;;;;;;;;;;;26.20;73.10;;;;;;5018800;28;19939;-70
2022/12/19 03:10:28;;;;;;;;;;;26.30;71.70;;;;;;5032791;28;19913;-69
2022/12/19 03:13:00;;;;;;;;;;;27.20;71.30;;;;;;5031996;28;19969;-68
2022/12/19 03:15:27;;;;;;;;;;;28.30;69.10;;;;;;5033683;28;19909;-69
2022/12/19 03:17:58;;;;;;;;;;;29.00;66.90;;;;;;5031615;28;19975;-68
2022/12/19 03:20:28;;;;;;;;;;;28.80;67.10;;;;;;5033817;28;20262;-68
2022/12/19 03:22:55;;;;;;;;;;;29.60;66.10;;;;;;5031968;28;19917;-72
2022/12/19 03:25:22;;;;;;;;;;;29.40;64.60;;;;;;5033150;28;19963;-68
2022/12/19 03:27:49;;;;;;;;;;;28.20;65.80;;;;;;5033603;28;19916;-69
2022/12/19 03:30:16;;;;;;;;;;;27.40;67.00;;;;;;5032073;28;20456;-71
2022/12/19 03:32:43;;;;;;;;;;;26.10;69.20;;;;;;5045215;28;20006;-68
2022/12/19 03:35:16;;;;;;;;;;;25.30;73.00;;;;;;5051995;28;19919;-69
2022/12/19 03:37:43;;;;;;;;;;;24.80;75.00;;;;;;5052864;28;20415;-68
2022/12/19 03:40:15;;;;;;;;;;;24.30;76.50;;;;;;5051193;28;19936;-69
2022/12/19 03:45:42;;;;;;;;;;;23.50;78.30;;;;;;5047456;28;19915;-68
2022/12/19 03:48:19;;;;;;;;;;;23.20;79.20;;;;;;5049866;28;19948;-71
2022/12/19 03:50:51;;;;;;;;;;;22.90;78.30;;;;;;5049010;28;20009;-69
2022/12/19 03:53:27;;;;;;;;;;;23.00;77.80;;;;;;5037422;28;19921;-68
2022/12/19 03:55:56;;;;;;;;;;;23.50;76.70;;;;;;5047962;28;19913;-69
2022/12/19 03:58:26;;;;;;;;;;;23.40;76.30;;;;;;5053890;28;20939;-68
2022/12/19 04:00:53;;;;;;;;;;;23.10;77.50;;;;;;5051346;28;19919;-68
2022/12/19 04:03:21;;;;;;;;;;;22.90;78.20;;;;;;5051780;28;19923;-70
2022/12/19 04:05:47;;;;;;;;;;;22.80;78.40;;;;;;5050001;28;20240;-68
2022/12/19 04:08:15;;;;;;;;;;;22.90;77.60;;;;;;5051867;28;20260;-68
2022/12/19 04:10:49;;;;;;;;;;;22.80;77.20;;;;;;5046770;28;20422;-70
2022/12/19 04:13:29;;;;;;;;;;;23.10;78.40;;;;;;5031325;28;19917;-67
2022/12/19 04:16:14;;;;;;;;;;;24.30;76.20;;;;;;5039834;28;19909;-69
2022/12/19 04:18:44;;;;;;;;;;;25.80;73.40;;;;;;5044421;28;20250;-68
2022/12/19 04:21:14;;;;;;;;;;;26.70;71.20;;;;;;5048922;28;19916;-68
2022/12/19 04:23:44;;;;;;;;;;;26.10;70.40;;;;;;5041910;28;20288;-68
2022/12/19 04:26:13;;;;;;;;;;;25.50;71.30;;;;;;5051771;28;19913;-71
2022/12/19 04:28:48;;;;;;;;;;;26.20;69.80;;;;;;5041328;28;19966;-69
2022/12/19 04:31:15;;;;;;;;;;;27.80;67.50;;;;;;5041794;28;19916;-70
2022/12/19 04:33:42;;;;;;;;;;;28.90;65.60;;;;;;5040492;28;20053;-68
2022/12/19 04:36:09;;;;;;;;;;;29.90;62.90;;;;;;5044268;28;19924;-70
2022/12/19 04:38:35;;;;;;;;;;;31.20;61.90;;;;;;5039029;28;19909;-71
2022/12/19 04:41:02;;;;;;;;;;;32.00;58.10;;;;;;5047337;28;20624;-71
2022/12/19 04:43:29;;;;;;;;;;;32.30;56.40;;;;;;5051394;28;19908;-68
2022/12/19 04:45:55;;;;;;;;;;;32.40;56.60;;;;;;5049145;28;19926;-67
2022/12/19 04:48:22;;;;;;;;;;;31.90;58.10;;;;;;5051518;28;19908;-67
2022/12/19 04:50:49;;;;;;;;;;;32.00;57.40;;;;;;5046592;28;19913;-71
2022/12/19 04:53:15;;;;;;;;;;;31.00;57.80;;;;;;5053530;28;19917;-70
2022/12/19 04:55:43;;;;;;;;;;;30.10;58.80;;;;;;5050719;28;19951;-69
2022/12/19 04:58:09;;;;;;;;;;;29.40;59.70;;;;;;5056132;28;19916;-70
2022/12/19 05:00:36;;;;;;;;;;;28.60;60.30;;;;;;5056977;28;19912;-70
2022/12/19 05:03:02;;;;;;;;;;;29.00;60.50;;;;;;5043278;28;19909;-70
2022/12/19 05:05:29;;;;;;;;;;;30.10;58.40;;;;;;5048519;28;19909;-69
2022/12/19 05:07:57;;;;;;;;;;;30.80;57.60;;;;;;5036750;28;20096;-71
2022/12/19 05:10:23;;;;;;;;;;;31.20;57.20;;;;;;5052307;28;20077;-69
2022/12/19 05:12:50;;;;;;;;;;;30.80;57.60;;;;;;5042076;28;19917;-71
2022/12/19 05:15:17;;;;;;;;;;;30.20;58.80;;;;;;5038480;28;20634;-73
2022/12/19 05:17:43;;;;;;;;;;;29.00;60.00;;;;;;5036704;28;19913;-69
2022/12/19 05:20:10;;;;;;;;;;;28.30;62.70;;;;;;5051131;28;20463;-71
2022/12/19 05:22:37;;;;;;;;;;;27.40;63.20;;;;;;5046550;28;19977;-70
2022/12/19 05:25:04;;;;;;;;;;;27.30;64.10;;;;;;5053192;28;20315;-70
2022/12/19 05:27:30;;;;;;;;;;;27.80;63.60;;;;;;5051247;28;20369;-71
2022/12/19 05:29:57;;;;;;;;;;;27.60;64.30;;;;;;5038453;28;19921;-71
2022/12/19 05:32:23;;;;;;;;;;;27.80;64.60;;;;;;5046376;28;19951;-70
2022/12/19 05:34:51;;;;;;;;;;;27.70;65.00;;;;;;5036445;28;20626;-71
2022/12/19 05:37:18;;;;;;;;;;;27.70;65.30;;;;;;5035724;28;19909;-68
2022/12/19 05:39:44;;;;;;;;;;;27.20;66.90;;;;;;5035105;28;19912;-69
2022/12/19 05:42:11;;;;;;;;;;;26.90;66.70;;;;;;5041035;28;20201;-67
2022/12/19 05:44:37;;;;;;;;;;;26.20;68.80;;;;;;5053125;28;19967;-70
2022/12/19 05:47:04;;;;;;;;;;;25.60;71.00;;;;;;5048965;28;19912;-68
2022/12/19 05:49:31;;;;;;;;;;;25.10;72.10;;;;;;5054803;28;19915;-68
2022/12/19 05:51:57;;;;;;;;;;;24.50;74.10;;;;;;5054174;28;19947;-70
2022/12/19 05:54:24;;;;;;;;;;;23.80;76.60;;;;;;5052888;28;19975;-68
2022/12/19 05:56:50;;;;;;;;;;;23.20;77.90;;;;;;5048529;28;19912;-68
2022/12/19 05:59:17;;;;;;;;;;;22.60;78.80;;;;;;5050509;28;19963;-69
2022/12/19 06:01:44;;;;;;;;;;;22.20;80.60;;;;;;5053907;28;19912;-68
2022/12/19 06:04:10;;;;;;;;;;;21.90;82.20;;;;;;5043117;28;20308;-69
2022/12/19 06:06:37;;;;;;;;;;;21.80;82.90;;;;;;5051111;28;19971;-69
2022/12/19 06:09:04;;;;;;;;;;;21.50;83.30;;;;;;5052236;28;19918;-71
2022/12/19 06:11:30;;;;;;;;;;;21.50;83.80;;;;;;5043400;28;19927;-70
2022/12/19 06:13:57;;;;;;;;;;;21.40;83.70;;;;;;5045997;28;19917;-71
2022/12/19 06:16:24;;;;;;;;;;;21.50;83.30;;;;;;5039859;28;20880;-70
2022/12/19 06:18:50;;;;;;;;;;;21.60;82.00;;;;;;5055038;28;19959;-71
2022/12/19 06:21:19;;;;;;;;;;;21.50;82.30;;;;;;5047379;28;19928;-71
2022/12/19 06:23:46;;;;;;;;;;;21.50;82.20;;;;;;5047557;28;20277;-70
2022/12/19 06:26:14;;;;;;;;;;;21.30;82.50;;;;;;5046529;28;19912;-70
2022/12/19 06:28:40;;;;;;;;;;;21.10;83.10;;;;;;5046052;28;20230;-70
2022/12/19 06:31:07;;;;;;;;;;;20.90;84.60;;;;;;5053415;28;19908;-75
2022/12/19 06:33:34;;;;;;;;;;;20.80;84.60;;;;;;5041603;28;19921;-70
2022/12/19 06:36:05;;;;;;;;;;;20.70;85.30;;;;;;5039320;28;19920;-73
2022/12/19 06:38:32;;;;;;;;;;;20.70;84.30;;;;;;5054417;28;19944;-71
2022/12/19 06:43:44;;;;;;;;;;;20.60;84.30;;;;;;5035930;28;19928;-71
2022/12/19 06:46:10;;;;;;;;;;;20.70;83.30;;;;;;5032776;28;19913;-71
2022/12/19 06:48:37;;;;;;;;;;;20.90;82.00;;;;;;5032541;28;19932;-71
2022/12/19 06:51:04;;;;;;;;;;;20.90;80.20;;;;;;5034148;28;20443;-71
2022/12/19 06:53:31;;;;;;;;;;;21.00;80.10;;;;;;5033643;28;19920;-72
2022/12/19 06:55:58;;;;;;;;;;;21.10;80.50;;;;;;5035348;28;19948;-71
2022/12/19 06:58:25;;;;;;;;;;;21.40;79.80;;;;;;5033309;28;19909;-72
2022/12/19 07:00:52;;;;;;;;;;;21.40;78.50;;;;;;5035071;28;20374;-71
2022/12/19 07:03:22;;;;;;;;;;;21.30;78.80;;;;;;5032054;28;19916;-71
2022/12/19 07:05:48;;;;;;;;;;;21.20;79.60;;;;;;5042221;28;20323;-69
2022/12/19 07:08:15;;;;;;;;;;;21.30;79.80;;;;;;5051779;28;19943;-70
2022/12/19 07:10:42;;;;;;;;;;;21.40;80.00;;;;;;5053199;28;19971;-72
2022/12/19 07:13:08;;;;;;;;;;;21.50;78.40;;;;;;5046809;28;19923;-71
2022/12/19 07:15:35;;;;;;;;;;;21.70;75.70;;;;;;5031318;28;20348;-69
2022/12/19 07:18:03;;;;;;;;;;;21.70;75.70;;;;;;5034394;28;20201;-70
2022/12/19 07:20:30;;;;;;;;;;;21.40;76.50;;;;;;5031822;28;19974;-71
2022/12/19 07:22:56;;;;;;;;;;;21.00;77.00;;;;;;5033168;28;20681;-71
2022/12/19 07:25:23;;;;;;;;;;;20.80;77.50;;;;;;5033989;28;19909;-71
2022/12/19 07:27:51;;;;;;;;;;;20.80;78.10;;;;;;5032783;28;19909;-69
2022/12/19 07:30:18;;;;;;;;;;;20.80;78.30;;;;;;5034533;28;19916;-71
2022/12/19 07:32:44;;;;;;;;;;;20.90;79.20;;;;;;5050036;28;20012;-69
2022/12/19 07:35:11;;;;;;;;;;;20.80;80.30;;;;;;5052988;28;19918;-71
2022/12/19 07:37:37;;;;;;;;;;;20.80;81.00;;;;;;5052147;28;20046;-70
2022/12/19 07:40:05;;;;;;;;;;;20.80;81.20;;;;;;5051845;28;19927;-70
2022/12/19 07:42:32;;;;;;;;;;;20.60;81.30;;;;;;5044946;28;20897;-71
2022/12/19 07:45:00;;;;;;;;;;;20.60;81.60;;;;;;5053985;28;19905;-70
2022/12/19 07:47:26;;;;;;;;;;;20.40;82.90;;;;;;5053428;28;20288;-71
2022/12/19 07:49:53;;;;;;;;;;;20.10;84.50;;;;;;5051720;28;20159;-69
2022/12/19 07:52:20;;;;;;;;;;;20.00;84.80;;;;;;5037739;28;19913;-71
2022/12/19 07:54:46;;;;;;;;;;;20.00;85.30;;;;;;5029893;28;19917;-72
2022/12/19 07:57:13;;;;;;;;;;;20.00;85.90;;;;;;5033838;28;20608;-70
2022/12/19 07:59:39;;;;;;;;;;;20.00;85.90;;;;;;5029802;28;19909;-70
2022/12/19 08:02:06;;;;;;;;;;;19.90;85.10;;;;;;5045944;28;20608;-72
2022/12/19 08:04:33;;;;;;;;;;;20.00;83.90;;;;;;5033172;28;20011;-71
2022/12/19 08:07:01;;;;;;;;;;;20.00;83.00;;;;;;5039979;28;19912;-71
2022/12/19 08:09:27;;;;;;;;;;;20.00;82.50;;;;;;5052627;28;20032;-70
2022/12/19 08:11:54;;;;;;;;;;;19.80;81.90;;;;;;5039182;28;19920;-69
2022/12/19 08:14:21;;;;;;;;;;;19.70;81.90;;;;;;5038974;28;20412;-72
2022/12/19 08:16:48;;;;;;;;;;;19.60;82.20;;;;;;5043080;28;19916;-72
2022/12/19 08:19:14;;;;;;;;;;;19.50;82.90;;;;;;5032757;28;19962;-70
2022/12/19 08:21:41;;;;;;;;;;;19.40;83.00;;;;;;5030707;28;19917;-72
2022/12/19 08:24:07;;;;;;;;;;;19.50;83.30;;;;;;5033434;28;19909;-70
2022/12/19 08:26:34;;;;;;;;;;;19.40;81.80;;;;;;5037955;28;19963;-72
2022/12/19 08:29:01;;;;;;;;;;;19.40;82.00;;;;;;5052858;28;19913;-69
2022/12/19 08:31:27;;;;;;;;;;;19.30;81.90;;;;;;5042624;28;20350;-68
2022/12/19 08:33:58;;;;;;;;;;;19.20;81.60;;;;;;5028809;28;20212;-69
2022/12/19 08:36:25;;;;;;;;;;;19.10;82.20;;;;;;5041035;28;19960;-71
2022/12/19 08:38:51;;;;;;;;;;;19.00;82.30;;;;;;5049330;28;19913;-69
2022/12/19 08:41:18;;;;;;;;;;;19.00;82.00;;;;;;5043419;28;19909;-70
2022/12/19 08:43:49;;;;;;;;;;;18.90;82.20;;;;;;5028912;28;19908;-71
2022/12/19 08:46:16;;;;;;;;;;;18.90;82.10;;;;;;5034084;28;20277;-70
2022/12/19 08:48:43;;;;;;;;;;;18.80;82.60;;;;;;5034050;28;19908;-72
2022/12/19 08:51:10;;;;;;;;;;;18.80;83.10;;;;;;5047261;28;19916;-71
2022/12/19 08:53:38;;;;;;;;;;;18.70;82.40;;;;;;5032285;28;19921;-71
2022/12/19 08:56:10;;;;;;;;;;;18.70;81.60;;;;;;5039037;28;19917;-70
2022/12/19 08:58:37;;;;;;;;;;;18.60;82.50;;;;;;5032484;28;20425;-71
2022/12/19 09:01:07;;;;;;;;;;;18.50;83.50;;;;;;5032649;28;19916;-69
2022/12/19 09:03:34;;;;;;;;;;;18.50;85.80;;;;;;5030082;28;19909;-71
2022/12/19 09:06:03;;;;;;;;;;;18.40;88.80;;;;;;5041718;28;19913;-72
2022/12/19 09:08:30;;;;;;;;;;;18.30;90.00;;;;;;5048258;28;20007;-72
2022/12/19 09:11:07;;;;;;;;;;;18.30;90.40;;;;;;5031322;28;20360;-71
2022/12/19 09:13:34;;;;;;;;;;;18.20;90.60;;;;;;5030192;28;19916;-73
2022/12/19 09:16:00;;;;;;;;;;;18.20;90.70;;;;;;5048902;28;19966;-72
2022/12/19 09:18:28;;;;;;;;;;;18.10;90.80;;;;;;5051481;28;19954;-72
2022/12/19 09:20:55;;;;;;;;;;;18.10;90.80;;;;;;5048483;28;19920;-71
2022/12/19 09:23:22;;;;;;;;;;;17.90;90.90;;;;;;5037192;28;19928;-71
2022/12/19 09:25:49;;;;;;;;;;;18.00;91.10;;;;;;5041166;28;19957;-73
2022/12/19 09:28:15;;;;;;;;;;;18.00;91.20;;;;;;5051125;28;19908;-72
2022/12/19 09:30:42;;;;;;;;;;;18.00;91.10;;;;;;5047850;28;19920;-71
2022/12/19 09:33:09;;;;;;;;;;;17.90;91.20;;;;;;5038432;28;20296;-71
2022/12/19 09:35:36;;;;;;;;;;;17.90;91.10;;;;;;5031543;28;19951;-75
2022/12/19 09:38:02;;;;;;;;;;;17.90;91.00;;;;;;5035626;28;19992;-72
2022/12/19 09:40:32;;;;;;;;;;;17.90;90.90;;;;;;5050144;28;19908;-70
2022/12/19 09:43:10;;;;;;;;;;;17.90;90.50;;;;;;5047991;28;19917;-71
2022/12/19 09:45:40;;;;;;;;;;;17.80;90.40;;;;;;5039348;28;19963;-73
2022/12/19 09:48:11;;;;;;;;;;;17.80;90.50;;;;;;5042686;28;19913;-72
2022/12/19 09:50:49;;;;;;;;;;;17.80;90.60;;;;;;5038329;28;19916;-73
2022/12/19 09:53:24;;;;;;;;;;;17.80;90.20;;;;;;5039379;28;19923;-73
2022/12/19 09:55:51;;;;;;;;;;;17.70;89.80;;;;;;5046051;28;19913;-72
2022/12/19 09:58:21;;;;;;;;;;;17.70;88.90;;;;;;5040450;28;19909;-73
2022/12/19 10:00:49;;;;;;;;;;;17.70;88.20;;;;;;5036049;28;19917;-72
2022/12/19 10:03:25;;;;;;;;;;;17.70;88.20;;;;;;5036056;28;19916;-72
2022/12/19 10:05:54;;;;;;;;;;;17.70;87.60;;;;;;5038665;28;19912;-71
2022/12/19 10:08:25;;;;;;;;;;;17.60;87.30;;;;;;5034379;28;20294;-71
2022/12/19 10:11:07;;;;;;;;;;;17.70;87.40;;;;;;5035898;28;19915;-74
2022/12/19 10:13:42;;;;;;;;;;;17.60;87.60;;;;;;5036519;28;19920;-72
2022/12/19 10:16:12;;;;;;;;;;;17.60;88.50;;;;;;5053194;28;19912;-73
2022/12/19 10:18:48;;;;;;;;;;;17.60;88.50;;;;;;5054150;28;19974;-73
2022/12/19 10:21:18;;;;;;;;;;;17.60;88.70;;;;;;5053297;28;19947;-73
2022/12/19 10:23:48;;;;;;;;;;;17.60;88.90;;;;;;5043081;28;19917;-73
2022/12/19 10:26:18;;;;;;;;;;;17.60;88.60;;;;;;5047143;28;19954;-72
2022/12/19 10:28:45;;;;;;;;;;;17.60;89.20;;;;;;5041315;28;19921;-72
2022/12/19 10:31:16;;;;;;;;;;;17.70;88.90;;;;;;5054647;28;19947;-71
2022/12/19 10:34:05;;;;;;;;;;;17.70;88.90;;;;;;5042641;28;19967;-71
2022/12/19 10:36:37;;;;;;;;;;;17.70;89.40;;;;;;5069706;28;20007;-71
2022/12/19 10:39:27;;;;;;;;;;;17.80;88.80;;;;;;5071458;28;19908;-72
2022/12/19 10:42:02;;;;;;;;;;;17.80;88.90;;;;;;5052230;28;19916;-72
2022/12/19 10:44:29;;;;;;;;;;;17.80;89.70;;;;;;5038737;28;20281;-72
2022/12/19 10:46:56;;;;;;;;;;;17.80;90.10;;;;;;5033847;28;19909;-72
2022/12/19 10:49:26;;;;;;;;;;;17.70;89.40;;;;;;5073497;28;19986;-71
2022/12/19 10:51:55;;;;;;;;;;;17.70;89.00;;;;;;5041273;28;19926;-73
2022/12/19 10:54:22;;;;;;;;;;;17.70;89.30;;;;;;5033908;28;19995;-72
2022/12/19 10:56:49;;;;;;;;;;;17.70;89.40;;;;;;5046158;28;19908;-74
2022/12/19 10:59:20;;;;;;;;;;;17.60;88.50;;;;;;5038346;28;20388;-72
2022/12/19 11:01:47;;;;;;;;;;;17.60;87.80;;;;;;5040336;28;19913;-72
2022/12/19 11:04:14;;;;;;;;;;;17.60;88.00;;;;;;5035249;28;19912;-73
2022/12/19 11:06:59;;;;;;;;;;;17.60;87.10;;;;;;5035962;28;19909;-70
2022/12/19 11:09:30;;;;;;;;;;;17.60;86.70;;;;;;5033367;28;20008;-71
2022/12/19 11:11:59;;;;;;;;;;;17.50;86.70;;;;;;5052997;28;20769;-71
2022/12/19 11:14:26;;;;;;;;;;;17.60;87.50;;;;;;5053356;28;19912;-70
2022/12/19 11:16:53;;;;;;;;;;;17.60;87.90;;;;;;5052287;28;19946;-71
2022/12/19 11:19:39;;;;;;;;;;;17.50;88.30;;;;;;5041632;28;20407;-72
2022/12/19 11:22:13;;;;;;;;;;;17.50;88.60;;;;;;5033477;28;19960;-70
2022/12/19 11:24:44;;;;;;;;;;;17.50;88.80;;;;;;5032589;28;19909;-70
2022/12/19 11:27:31;;;;;;;;;;;17.50;89.00;;;;;;5033968;28;19912;-70
2022/12/19 11:29:59;;;;;;;;;;;17.50;89.00;;;;;;5041076;28;19923;-70
2022/12/19 11:32:36;;;;;;;;;;;17.50;88.40;;;;;;5052853;28;19966;-71
2022/12/19 11:35:06;;;;;;;;;;;17.50;88.10;;;;;;5052575;28;19908;-73
2022/12/19 11:37:38;;;;;;;;;;;17.50;86.90;;;;;;5054000;28;19913;-71
2022/12/19 11:40:17;;;;;;;;;;;17.50;87.30;;;;;;5044247;28;20320;-71
2022/12/19 11:42:47;;;;;;;;;;;17.50;86.60;;;;;;5031591;28;19966;-71
2022/12/19 11:45:28;;;;;;;;;;;17.40;86.70;;;;;;5038489;28;19978;-71
2022/12/19 11:48:01;;;;;;;;;;;17.40;87.00;;;;;;5053720;28;19946;-72
2022/12/19 11:50:32;;;;;;;;;;;17.40;87.60;;;;;;5041908;28;20039;-72
2022/12/19 11:53:12;;;;;;;;;;;17.40;87.50;;;;;;5032446;28;19921;-72
2022/12/19 11:55:43;;;;;;;;;;;17.40;87.80;;;;;;5034646;28;19959;-72
2022/12/19 11:58:11;;;;;;;;;;;17.40;87.90;;;;;;5033043;28;19928;-70
2022/12/19 12:00:44;;;;;;;;;;;17.40;88.10;;;;;;5045929;28;19915;-72
2022/12/19 12:03:31;;;;;;;;;;;17.30;88.60;;;;;;5052820;28;19930;-72
2022/12/19 12:05:58;;;;;;;;;;;17.30;89.20;;;;;;5052460;28;19948;-71
2022/12/19 12:08:30;;;;;;;;;;;17.10;89.30;;;;;;5053937;28;20414;-71
2022/12/19 12:10:59;;;;;;;;;;;17.10;89.50;;;;;;5045251;28;19909;-69
2022/12/19 12:13:35;;;;;;;;;;;17.00;89.60;;;;;;5053906;28;19947;-71
2022/12/19 12:16:09;;;;;;;;;;;16.90;89.30;;;;;;5052906;28;20261;-73
2022/12/19 12:18:39;;;;;;;;;;;16.90;89.10;;;;;;5052647;28;19912;-70
2022/12/19 12:21:24;;;;;;;;;;;16.90;89.80;;;;;;5035938;28;19909;-70
2022/12/19 12:23:50;;;;;;;;;;;16.90;90.00;;;;;;5032743;28;19913;-71
2022/12/19 12:26:28;;;;;;;;;;;16.90;90.30;;;;;;5032187;28;20359;-70
2022/12/19 12:29:01;;;;;;;;;;;16.80;90.40;;;;;;5033929;28;19970;-70
2022/12/19 12:31:47;;;;;;;;;;;16.70;90.30;;;;;;5052937;28;19961;-72
2022/12/19 12:34:32;;;;;;;;;;;16.70;90.50;;;;;;5053004;28;19920;-72
2022/12/19 12:37:02;;;;;;;;;;;16.70;91.00;;;;;;5053903;28;19952;-73
2022/12/19 12:39:47;;;;;;;;;;;16.70;90.80;;;;;;5041258;28;19916;-72
2022/12/19 12:42:20;;;;;;;;;;;16.70;90.90;;;;;;5052396;28;19913;-72
2022/12/19 12:44:47;;;;;;;;;;;16.80;90.60;;;;;;5052641;28;19915;-72
2022/12/19 12:47:21;;;;;;;;;;;16.80;91.00;;;;;;5052574;28;19954;-73
2022/12/19 12:49:58;;;;;;;;;;;16.80;90.50;;;;;;5047774;28;19915;-72
2022/12/19 12:52:46;;;;;;;;;;;16.90;90.70;;;;;;5031613;28;19921;-71
2022/12/19 12:55:31;;;;;;;;;;;16.90;90.50;;;;;;5032249;28;19920;-72
2022/12/19 12:57:58;;;;;;;;;;;17.00;90.60;;;;;;5033479;28;20049;-71
2022/12/19 13:00:25;;;;;;;;;;;17.00;90.70;;;;;;5041534;28;20361;-71
2022/12/19 13:02:52;;;;;;;;;;;17.10;90.30;;;;;;5053794;28;19916;-71
2022/12/19 13:05:31;;;;;;;;;;;17.10;90.20;;;;;;5039080;28;20558;-70
2022/12/19 13:07:58;;;;;;;;;;;17.10;90.40;;;;;;5032645;28;19921;-71
2022/12/19 13:10:28;;;;;;;;;;;17.10;90.20;;;;;;5043508;28;20015;-72
2022/12/19 13:13:01;;;;;;;;;;;17.10;90.30;;;;;;5056705;28;20514;-72
2022/12/19 13:15:28;;;;;;;;;;;17.10;90.50;;;;;;5056391;28;20003;-70
2022/12/19 13:17:55;;;;;;;;;;;17.10;90.70;;;;;;5055996;28;20038;-71
2022/12/19 13:20:25;;;;;;;;;;;17.10;90.30;;;;;;5047900;28;19913;-72
2022/12/19 13:22:57;;;;;;;;;;;17.00;90.60;;;;;;5036245;28;19909;-71
2022/12/19 13:25:27;;;;;;;;;;;17.00;90.90;;;;;;5035475;28;19908;-71
2022/12/19 13:27:57;;;;;;;;;;;16.90;91.10;;;;;;5036256;28;19995;-71
2022/12/19 13:30:24;;;;;;;;;;;16.90;91.50;;;;;;5045180;28;20245;-72
2022/12/19 13:32:51;;;;;;;;;;;16.90;91.70;;;;;;5055751;28;19974;-73
2022/12/19 13:35:17;;;;;;;;;;;16.90;91.70;;;;;;5055869;28;20273;-72
2022/12/19 13:37:45;;;;;;;;;;;16.80;91.50;;;;;;5055833;28;20347;-73
2022/12/19 13:40:30;;;;;;;;;;;16.80;91.40;;;;;;5051142;28;20262;-72
2022/12/19 13:45:47;;;;;;;;;;;16.80;91.50;;;;;;5035479;28;19916;-73
2022/12/19 13:48:15;;;;;;;;;;;16.80;91.70;;;;;;5039946;28;19955;-73
2022/12/19 13:50:42;;;;;;;;;;;16.80;91.50;;;;;;5048926;28;19948;-73
2022/12/19 13:53:16;;;;;;;;;;;16.80;91.40;;;;;;5056645;28;19924;-73
2022/12/19 13:55:43;;;;;;;;;;;16.80;91.40;;;;;;5049722;28;19919;-74
2022/12/19 13:58:29;;;;;;;;;;;16.80;91.70;;;;;;5055090;28;19991;-73
2022/12/19 14:00:58;;;;;;;;;;;16.70;92.10;;;;;;5055115;28;19908;-72
2022/12/19 14:03:37;;;;;;;;;;;16.70;91.90;;;;;;5056741;28;20516;-71
2022/12/19 14:06:09;;;;;;;;;;;16.70;91.70;;;;;;5036015;28;19962;-73
2022/12/19 14:08:36;;;;;;;;;;;16.70;91.70;;;;;;5038175;28;19930;-71
2022/12/19 14:11:06;;;;;;;;;;;16.70;92.10;;;;;;5037219;28;20440;-73
2022/12/19 14:16:22;;;;;;;;;;;16.70;92.00;;;;;;5055026;28;19915;-73
2022/12/19 14:18:49;;;;;;;;;;;16.80;91.90;;;;;;5057882;28;20377;-72
2022/12/19 14:21:17;;;;;;;;;;;16.70;91.90;;;;;;5054865;28;20357;-74
2022/12/19 14:23:44;;;;;;;;;;;16.70;92.30;;;;;;5047570;28;20745;-72
2022/12/19 14:26:21;;;;;;;;;;;16.70;92.30;;;;;;5055346;28;19917;-72
2022/12/19 14:28:51;;;;;;;;;;;16.70;92.60;;;;;;5046522;28;19919;-73
2022/12/19 14:31:18;;;;;;;;;;;16.60;93.00;;;;;;5035086;28;19909;-73
2022/12/19 14:33:46;;;;;;;;;;;16.50;93.20;;;;;;5038616;28;20010;-72
2022/12/19 14:36:13;;;;;;;;;;;16.60;93.00;;;;;;5055753;28;19912;-71
2022/12/19 14:38:40;;;;;;;;;;;16.50;93.10;;;;;;5054312;28;19953;-73
2022/12/19 14:43:37;;;;;;;;;;;16.50;93.10;;;;;;5056611;28;20529;-73
2022/12/19 14:44:02;;;;;;;;;;;16.40;93.00;;;;;;5049922;28;20372;-74